createdAt,value
2023-08-24T03:42:47.075Z,16.00
2023-08-24T03:45:13.902Z,16.20
2023-08-24T03:47:40.973Z,16.20
2023-08-24T03:50:08.114Z,16.20
2023-08-24T03:52:34.991Z,16.30
2023-08-24T03:55:01.969Z,16.20
2023-08-24T03:57:29.010Z,16.20
2023-08-24T03:59:55.776Z,16.10
2023-08-24T04:02:22.626Z,16.10
2023-08-24T04:04:49.481Z,16.10
2023-08-24T04:07:16.757Z,16.10
2023-08-24T04:09:43.628Z,16.10
2023-08-24T04:12:10.485Z,16.10
2023-08-24T04:14:37.291Z,16.00
2023-08-24T04:17:04.571Z,16.00
2023-08-24T04:19:31.453Z,15.90
2023-08-24T04:21:58.238Z,15.80
2023-08-24T04:24:26.445Z,15.90
2023-08-24T04:26:53.352Z,15.80
2023-08-24T04:29:20.128Z,15.80
2023-08-24T04:31:46.950Z,15.80
2023-08-24T04:34:13.693Z,15.90
2023-08-24T04:36:40.480Z,15.90
2023-08-24T04:39:07.328Z,15.90
2023-08-24T04:41:34.194Z,15.90
2023-08-24T04:44:01.097Z,15.90
2023-08-24T04:46:28.025Z,16.00
2023-08-24T04:48:54.977Z,16.00
2023-08-24T04:51:21.898Z,16.10
2023-08-24T04:53:48.678Z,16.10
2023-08-24T04:56:15.983Z,16.10
2023-08-24T04:58:52.871Z,16.20
2023-08-24T05:01:20.099Z,16.20
2023-08-24T05:03:46.983Z,16.10
2023-08-24T05:06:13.866Z,16.10
2023-08-24T05:08:40.757Z,16.10
2023-08-24T05:11:14.856Z,16.00
2023-08-24T05:13:42.283Z,16.10
2023-08-24T05:16:10.344Z,16.10
2023-08-24T05:18:37.572Z,16.10
2023-08-24T05:21:04.663Z,16.10
2023-08-24T05:23:32.219Z,16.20
2023-08-24T05:25:59.386Z,16.30
2023-08-24T05:28:26.680Z,16.30
2023-08-24T05:30:53.872Z,16.40
2023-08-24T05:33:21.636Z,16.40
2023-08-24T05:35:48.818Z,16.60
2023-08-24T05:38:16.090Z,16.50
2023-08-24T05:40:48.548Z,16.60
2023-08-24T05:43:15.412Z,16.80
2023-08-24T05:45:45.057Z,16.80
2023-08-24T05:48:12.768Z,16.90
2023-08-24T05:50:43.649Z,17.00
2023-08-24T05:53:10.430Z,17.20
2023-08-24T05:55:37.248Z,17.30
2023-08-24T05:58:04.363Z,17.30
2023-08-24T06:00:31.264Z,17.20
2023-08-24T06:02:58.160Z,17.10
2023-08-24T06:05:25.095Z,17.10
2023-08-24T06:07:52.159Z,17.20
2023-08-24T06:10:19.324Z,17.20
2023-08-24T06:12:46.150Z,17.30
2023-08-24T06:15:14.682Z,17.20
2023-08-24T06:17:41.885Z,17.40
2023-08-24T06:20:11.703Z,17.50
2023-08-24T06:22:38.880Z,17.60
2023-08-24T06:25:06.318Z,17.50
2023-08-24T06:27:33.171Z,17.40
2023-08-24T06:29:59.997Z,17.40
2023-08-24T06:32:26.919Z,17.40
2023-08-24T06:34:55.320Z,17.30
2023-08-24T06:37:22.188Z,17.40
2023-08-24T06:39:49.971Z,17.40
2023-08-24T06:42:16.795Z,17.60
2023-08-24T06:44:43.761Z,17.70
2023-08-24T06:47:10.871Z,17.80
2023-08-24T06:49:37.681Z,17.90
2023-08-24T06:52:04.857Z,18.00
2023-08-24T06:54:31.668Z,18.10
2023-08-24T06:56:58.484Z,18.20
2023-08-24T06:59:25.683Z,18.50
2023-08-24T07:01:53.381Z,18.60
2023-08-24T07:04:20.456Z,18.80
2023-08-24T07:06:47.519Z,18.90
2023-08-24T07:09:14.380Z,19.30
2023-08-24T07:11:41.165Z,19.70
2023-08-24T07:14:08.033Z,20.30
2023-08-24T07:16:34.916Z,20.80
2023-08-24T07:19:01.719Z,21.30
2023-08-24T07:21:28.557Z,21.60
2023-08-24T07:23:55.487Z,21.80
2023-08-24T07:26:22.269Z,22.00
2023-08-24T07:28:49.194Z,22.00
2023-08-24T07:31:16.129Z,21.90
2023-08-24T07:33:46.126Z,21.70
2023-08-24T07:36:12.906Z,21.70
2023-08-24T07:38:39.661Z,21.60
2023-08-24T07:41:07.519Z,21.60
2023-08-24T07:43:35.272Z,21.80
2023-08-24T07:46:02.147Z,21.80
2023-08-24T07:48:31.222Z,21.50
2023-08-24T07:50:58.102Z,21.20
2023-08-24T07:53:25.034Z,20.90
2023-08-24T07:55:51.864Z,20.80
2023-08-24T07:58:18.692Z,20.70
2023-08-24T08:00:45.582Z,20.60
2023-08-24T08:03:12.503Z,20.60
2023-08-24T08:05:39.526Z,20.50
2023-08-24T08:08:06.534Z,20.60
2023-08-24T08:10:33.343Z,20.60
2023-08-24T08:13:00.202Z,20.90
2023-08-24T08:15:27.044Z,20.80
2023-08-24T08:17:54.103Z,20.90
2023-08-24T08:20:21.075Z,21.00
2023-08-24T08:22:47.976Z,21.00
2023-08-24T08:25:14.888Z,20.80
2023-08-24T08:27:41.726Z,20.70
2023-08-24T08:30:08.681Z,20.70
2023-08-24T08:32:35.495Z,20.80
2023-08-24T08:35:02.447Z,20.80
2023-08-24T08:37:29.505Z,21.00
2023-08-24T08:39:56.348Z,21.00
2023-08-24T08:42:23.234Z,21.20
2023-08-24T08:44:53.373Z,21.30
2023-08-24T08:47:21.364Z,21.40
2023-08-24T08:49:49.268Z,21.70
2023-08-24T08:52:16.186Z,22.00
2023-08-24T08:54:43.269Z,22.10
2023-08-24T08:57:11.131Z,22.60
2023-08-24T08:59:37.933Z,23.00
2023-08-24T09:02:05.017Z,23.20
2023-08-24T09:06:59.391Z,23.60
2023-08-24T09:09:27.265Z,23.60
2023-08-24T09:11:54.611Z,23.70
2023-08-24T09:14:21.442Z,24.20
2023-08-24T09:16:48.563Z,24.20
2023-08-24T09:19:15.453Z,24.10
2023-08-24T09:21:43.363Z,23.90
2023-08-24T09:24:11.855Z,23.60
2023-08-24T09:26:44.143Z,23.50
2023-08-24T09:29:14.868Z,23.40
2023-08-24T09:31:41.856Z,23.20
2023-08-24T09:34:08.758Z,23.50
2023-08-24T09:36:36.276Z,23.50
2023-08-24T09:39:06.290Z,23.60
2023-08-24T09:44:04.467Z,26.10
2023-08-24T09:46:31.338Z,26.30
2023-08-24T09:51:28.554Z,26.70
2023-08-24T09:53:58.185Z,27.60
2023-08-24T10:01:21.072Z,27.60
2023-08-24T10:03:48.896Z,27.10
2023-08-24T10:06:16.029Z,28.10
2023-08-24T10:08:48.633Z,28.70
2023-08-24T10:11:18.538Z,28.20
2023-08-24T10:13:50.389Z,27.80
2023-08-24T10:16:17.615Z,27.80
2023-08-24T10:18:44.937Z,26.90
2023-08-24T10:21:12.208Z,26.30
2023-08-24T10:23:40.388Z,26.20
2023-08-24T10:26:09.114Z,27.20
2023-08-24T10:28:36.405Z,28.90
2023-08-24T10:31:03.755Z,28.40
2023-08-24T10:33:31.046Z,27.20
2023-08-24T10:35:59.163Z,26.30
2023-08-24T10:38:29.951Z,25.60
2023-08-24T10:41:06.422Z,25.00
2023-08-24T10:46:02.008Z,27.80
2023-08-24T10:48:29.824Z,29.60
2023-08-24T10:51:15.086Z,28.40
2023-08-24T10:53:42.452Z,26.70
2023-08-24T10:56:13.365Z,25.40
2023-08-24T10:58:40.401Z,24.20
2023-08-24T11:01:07.338Z,23.30
2023-08-24T11:03:34.962Z,23.00
2023-08-24T11:06:02.089Z,22.00
2023-08-24T11:08:47.633Z,21.30
2023-08-24T11:14:01.667Z,20.30
2023-08-24T11:16:41.722Z,20.00
2023-08-24T11:19:09.746Z,19.70
2023-08-24T11:21:36.695Z,19.60
2023-08-24T11:24:03.565Z,19.50
2023-08-24T11:26:33.297Z,19.40
2023-08-24T11:29:01.618Z,19.50
2023-08-24T11:31:28.783Z,19.80
2023-08-24T11:33:56.974Z,20.20
2023-08-24T11:36:26.404Z,20.50
2023-08-24T11:38:54.348Z,20.70
2023-08-24T11:41:22.459Z,20.90
2023-08-24T11:43:51.743Z,21.10
2023-08-24T11:46:19.146Z,21.40
2023-08-24T11:48:46.680Z,21.50
2023-08-24T11:51:14.148Z,21.90
2023-08-24T11:53:45.982Z,22.00
2023-08-24T11:56:14.007Z,21.70
2023-08-24T11:58:41.534Z,21.60
2023-08-24T12:01:12.722Z,21.30
2023-08-24T12:03:40.145Z,21.30
2023-08-24T12:06:16.918Z,21.30
2023-08-24T12:08:44.674Z,21.10
2023-08-24T12:11:12.425Z,20.90
2023-08-24T12:13:39.205Z,20.80
2023-08-24T12:16:06.150Z,20.40
2023-08-24T12:18:37.857Z,20.20
2023-08-24T12:21:08.328Z,20.10
2023-08-24T12:23:36.366Z,19.80
2023-08-24T12:26:03.153Z,19.70
2023-08-24T12:28:30.422Z,19.80
2023-08-24T12:30:57.253Z,19.80
2023-08-24T12:33:27.919Z,20.00
2023-08-24T12:35:56.431Z,20.10
2023-08-24T12:38:23.688Z,20.20
2023-08-24T12:40:51.789Z,20.40
2023-08-24T12:43:18.684Z,20.40
2023-08-24T12:45:45.795Z,20.50
2023-08-24T12:48:12.718Z,20.50
2023-08-24T12:50:39.959Z,20.40
2023-08-24T12:53:09.450Z,20.40
2023-08-24T12:55:37.155Z,20.40
2023-08-24T12:58:04.915Z,20.60
2023-08-24T13:00:31.892Z,21.00
2023-08-24T13:02:58.940Z,21.30
2023-08-24T13:05:25.830Z,21.60
2023-08-24T13:07:53.211Z,22.10
2023-08-24T13:10:20.265Z,22.80
2023-08-24T13:12:47.075Z,23.80
2023-08-24T13:15:13.894Z,24.80
2023-08-24T13:17:40.803Z,25.30
2023-08-24T13:20:08.019Z,26.00
2023-08-24T13:25:01.891Z,28.40
2023-08-24T13:27:28.721Z,27.00
2023-08-24T13:29:57.996Z,25.50
2023-08-24T13:32:24.748Z,24.20
2023-08-24T13:34:51.654Z,23.30
2023-08-24T13:37:19.021Z,22.80
2023-08-24T13:39:46.057Z,22.20
2023-08-24T13:42:14.074Z,21.90
2023-08-24T13:44:40.937Z,21.50
2023-08-24T13:47:07.749Z,21.70
2023-08-24T13:49:40.397Z,21.50
2023-08-24T13:52:08.180Z,21.60
2023-08-24T13:54:35.143Z,21.80
2023-08-24T13:57:02.812Z,21.90
2023-08-24T13:59:30.128Z,21.90
2023-08-24T14:01:57.099Z,21.70
2023-08-24T14:04:24.081Z,21.70
2023-08-24T14:06:50.918Z,21.60
2023-08-24T14:09:17.956Z,21.40
2023-08-24T14:11:44.781Z,21.20
2023-08-24T14:14:11.728Z,21.20
2023-08-24T14:16:38.741Z,21.10
2023-08-24T14:19:06.060Z,21.10
2023-08-24T14:24:04.059Z,20.80
2023-08-24T14:26:30.970Z,20.70
2023-08-24T14:28:58.941Z,20.50
2023-08-24T14:31:27.216Z,20.50
2023-08-24T14:33:55.590Z,20.50
2023-08-24T14:36:22.715Z,20.40
2023-08-24T14:38:50.047Z,20.60
2023-08-24T14:41:17.199Z,20.50
2023-08-24T14:43:44.112Z,20.60
2023-08-24T14:46:11.244Z,20.60
2023-08-24T14:48:38.425Z,20.60
2023-08-24T14:51:05.332Z,20.50
2023-08-24T14:53:32.164Z,20.50
2023-08-24T14:55:59.688Z,20.40
2023-08-24T14:58:26.944Z,20.20
2023-08-24T15:00:54.710Z,20.20
2023-08-24T15:03:22.304Z,20.20
2023-08-24T15:06:05.324Z,20.20
2023-08-24T15:08:32.782Z,20.30
2023-08-24T15:11:00.189Z,20.20
2023-08-24T15:13:28.306Z,20.10
2023-08-24T15:15:56.234Z,19.90
2023-08-24T15:18:23.557Z,20.00
2023-08-24T15:20:50.818Z,20.00
2023-08-24T15:23:27.855Z,19.90
2023-08-24T15:25:58.841Z,19.80
2023-08-24T15:28:25.979Z,19.80
2023-08-24T15:30:52.841Z,19.70
2023-08-24T15:33:20.562Z,19.60
2023-08-24T15:35:48.137Z,19.80
2023-08-24T15:38:14.930Z,19.70
2023-08-24T15:40:43.520Z,19.90
2023-08-24T15:43:12.448Z,19.90
2023-08-24T15:45:39.371Z,19.80
2023-08-24T15:48:06.512Z,19.80
2023-08-24T15:50:33.240Z,19.70
2023-08-24T15:53:00.846Z,19.80
2023-08-24T15:55:31.700Z,19.80
2023-08-24T15:58:00.261Z,19.70
2023-08-24T16:00:27.029Z,19.80
2023-08-24T16:02:53.850Z,19.80
2023-08-24T16:05:20.735Z,19.70
2023-08-24T16:07:47.642Z,19.80
2023-08-24T16:10:14.472Z,19.80
2023-08-24T16:12:41.561Z,19.70
2023-08-24T16:15:08.767Z,19.70
2023-08-24T16:17:35.668Z,19.70
2023-08-24T16:20:04.042Z,19.60
2023-08-24T16:22:30.833Z,19.50
2023-08-24T16:24:57.627Z,19.50
2023-08-24T16:27:24.421Z,19.40
2023-08-24T16:29:51.247Z,19.40
2023-08-24T16:32:18.149Z,19.40
2023-08-24T16:34:44.929Z,19.30
2023-08-24T16:37:11.795Z,19.30
2023-08-24T16:39:38.643Z,19.30
2023-08-24T16:42:05.679Z,19.20
2023-08-24T16:44:32.502Z,19.10
2023-08-24T16:46:59.382Z,19.20
2023-08-24T16:49:26.270Z,19.20
2023-08-24T16:51:53.165Z,19.00
2023-08-24T16:54:19.942Z,19.00
2023-08-24T16:56:46.748Z,19.00
2023-08-24T16:59:13.625Z,19.00
2023-08-24T17:01:40.580Z,19.00
2023-08-24T17:04:08.926Z,18.80
2023-08-24T17:06:38.370Z,18.80
2023-08-24T17:09:06.479Z,18.70
2023-08-24T17:11:33.283Z,18.80
2023-08-24T17:14:00.156Z,18.70
2023-08-24T17:16:27.223Z,18.70
2023-08-24T17:18:54.079Z,18.60
2023-08-24T17:21:20.820Z,18.60
2023-08-24T17:23:47.595Z,18.60
2023-08-24T17:26:14.389Z,18.70
2023-08-24T17:28:41.158Z,18.70
2023-08-24T17:31:07.989Z,18.70
2023-08-24T17:33:35.088Z,18.70
2023-08-24T17:36:03.896Z,18.80
2023-08-24T17:38:32.726Z,18.80
2023-08-24T17:41:04.088Z,18.80
2023-08-24T17:43:31.329Z,18.80
2023-08-24T17:45:58.167Z,18.80
2023-08-24T17:48:25.109Z,18.70
2023-08-24T17:50:55.587Z,18.70
2023-08-24T17:53:27.021Z,18.60
2023-08-24T17:55:54.336Z,18.50
2023-08-24T17:58:21.848Z,18.50
2023-08-24T18:00:48.704Z,18.40
2023-08-24T18:03:15.642Z,18.30
2023-08-24T18:05:42.483Z,18.30
2023-08-24T18:08:09.670Z,18.20
2023-08-24T18:10:36.572Z,18.10
2023-08-24T18:13:03.974Z,18.20
2023-08-24T18:15:34.963Z,18.10
2023-08-24T18:18:02.203Z,18.10
2023-08-24T18:20:29.310Z,18.10
2023-08-24T18:22:56.296Z,18.20
2023-08-24T18:25:28.320Z,18.20
2023-08-24T18:27:55.621Z,18.30
2023-08-24T18:30:22.839Z,18.30
2023-08-24T18:32:49.903Z,18.30
2023-08-24T18:35:16.885Z,18.40
2023-08-24T18:37:43.777Z,18.50
2023-08-24T18:40:10.614Z,18.50
2023-08-24T18:42:38.158Z,18.40
2023-08-24T18:45:07.907Z,18.20
2023-08-24T18:47:35.216Z,17.90
2023-08-24T18:50:02.275Z,17.80
2023-08-24T18:52:29.633Z,17.70
2023-08-24T18:54:57.773Z,17.60
2023-08-24T18:57:24.584Z,17.50
2023-08-24T18:59:53.042Z,17.60
2023-08-24T19:02:21.881Z,17.50
2023-08-24T19:04:49.634Z,17.50
2023-08-24T19:07:16.578Z,17.50
2023-08-24T19:09:43.322Z,17.50
2023-08-24T19:12:10.077Z,17.60
2023-08-24T19:14:37.009Z,17.60
2023-08-24T19:17:08.446Z,17.60
2023-08-24T19:19:37.094Z,17.50
2023-08-24T19:22:03.997Z,17.50
2023-08-24T19:24:30.901Z,17.40
2023-08-24T19:26:58.145Z,17.40
2023-08-24T19:29:26.842Z,17.30
2023-08-24T19:31:53.776Z,17.50
2023-08-24T19:34:20.617Z,17.40
2023-08-24T19:36:47.519Z,17.50
2023-08-24T19:39:14.690Z,17.50
2023-08-24T19:41:54.172Z,17.50
2023-08-24T19:44:25.155Z,17.40
2023-08-24T19:46:52.005Z,17.30
2023-08-24T19:49:19.019Z,17.20
2023-08-24T19:51:46.316Z,17.30
2023-08-24T19:54:13.683Z,17.20
2023-08-24T19:56:40.616Z,17.20
2023-08-24T19:59:07.711Z,17.10
2023-08-24T20:01:35.063Z,17.00
2023-08-24T20:04:05.100Z,17.00
2023-08-24T20:06:32.236Z,17.00
2023-08-24T20:08:59.039Z,17.00
2023-08-24T20:11:32.414Z,16.90
2023-08-24T20:14:02.427Z,16.90
2023-08-24T20:16:29.310Z,16.90
2023-08-24T20:18:57.365Z,16.90
2023-08-24T20:21:25.165Z,17.00
2023-08-24T20:23:52.037Z,17.00
2023-08-24T20:26:18.877Z,17.00
2023-08-24T20:28:45.724Z,17.00
2023-08-24T20:31:12.605Z,17.10
2023-08-24T20:33:39.502Z,17.20
2023-08-24T20:36:06.435Z,17.30
2023-08-24T20:38:33.295Z,17.40
2023-08-24T20:41:06.118Z,17.40
2023-08-24T20:43:32.896Z,17.50
2023-08-24T20:45:59.823Z,17.50
2023-08-24T20:48:27.549Z,17.50
2023-08-24T20:51:02.942Z,17.40
2023-08-24T20:53:29.848Z,17.50
2023-08-24T20:55:56.639Z,17.40
2023-08-24T20:58:23.439Z,17.30
2023-08-24T21:00:50.330Z,17.10
2023-08-24T21:03:17.830Z,17.10
2023-08-24T21:05:44.752Z,17.10
2023-08-24T21:08:11.571Z,17.10
2023-08-24T21:10:38.303Z,17.10
2023-08-24T21:13:05.073Z,17.00
2023-08-24T21:15:34.476Z,16.90
2023-08-24T21:18:01.325Z,16.90
2023-08-24T21:20:28.431Z,16.90
2023-08-24T21:22:55.313Z,16.70
2023-08-24T21:25:22.388Z,16.70
2023-08-24T21:27:49.168Z,16.70
2023-08-24T21:30:16.016Z,16.60
2023-08-24T21:32:42.810Z,16.80
2023-08-24T21:35:09.928Z,16.60
2023-08-24T21:37:36.787Z,16.60
2023-08-24T21:40:03.972Z,16.60
2023-08-24T21:42:30.746Z,16.60
2023-08-24T21:44:57.688Z,16.60
2023-08-24T21:47:24.565Z,16.60
2023-08-24T21:49:51.403Z,16.40
2023-08-24T21:52:18.466Z,16.50
2023-08-24T21:54:45.441Z,16.40
2023-08-24T21:57:12.433Z,16.40
2023-08-24T21:59:39.282Z,16.30
2023-08-24T22:02:06.099Z,16.30
2023-08-24T22:04:33.113Z,16.20
2023-08-24T22:06:59.909Z,16.20
2023-08-24T22:09:26.744Z,16.10
2023-08-24T22:11:53.563Z,16.10
2023-08-24T22:14:21.409Z,16.00
2023-08-24T22:16:48.188Z,16.00
2023-08-24T22:19:26.037Z,16.10
2023-08-24T22:21:54.339Z,15.90
2023-08-24T22:24:21.112Z,16.00
2023-08-24T22:26:47.884Z,15.90
2023-08-24T22:29:14.728Z,15.90
2023-08-24T22:31:41.661Z,15.90
2023-08-24T22:34:08.526Z,15.80
2023-08-24T22:36:35.320Z,15.80
2023-08-24T22:39:04.278Z,15.70
2023-08-24T22:41:31.146Z,15.70
2023-08-24T22:43:57.990Z,15.80
2023-08-24T22:46:24.895Z,15.70
2023-08-24T22:48:51.876Z,15.70
2023-08-24T22:51:18.698Z,15.70
2023-08-24T22:53:45.428Z,15.60
2023-08-24T22:56:14.574Z,15.60
2023-08-24T22:58:41.409Z,15.50
2023-08-24T23:01:14.847Z,15.50
2023-08-24T23:03:41.615Z,15.60
2023-08-24T23:06:12.650Z,15.60
2023-08-24T23:08:39.444Z,15.40
2023-08-24T23:11:06.218Z,15.50
2023-08-24T23:13:33.010Z,15.40
2023-08-24T23:15:59.837Z,15.50
2023-08-24T23:18:26.632Z,15.40
2023-08-24T23:20:53.392Z,15.40
2023-08-24T23:23:20.197Z,15.40
2023-08-24T23:25:46.977Z,15.40
2023-08-24T23:28:13.770Z,15.40
2023-08-24T23:30:40.575Z,15.40
2023-08-24T23:33:08.441Z,15.40
2023-08-24T23:35:35.732Z,15.30
2023-08-24T23:38:02.714Z,15.20
2023-08-24T23:40:31.268Z,15.30
2023-08-24T23:42:58.146Z,15.30
2023-08-24T23:45:25.051Z,15.20
2023-08-24T23:47:52.092Z,15.20
2023-08-24T23:50:19.095Z,15.20
2023-08-24T23:52:45.960Z,15.30
2023-08-24T23:55:12.767Z,15.20
2023-08-24T23:57:39.624Z,15.10
